sensor_id;sensor_type;location;lat;lon;timestamp;pressure;altitude;pressure_sealevel;temperature;humidity
54546;BME280;40444;45.184;9.850;2023-03-22T19:10:22;100773.94;;;16.70;79.83
54546;BME280;40444;45.184;9.850;2023-03-22T19:12:50;100777.81;;;16.76;79.16
54546;BME280;40444;45.184;9.850;2023-03-22T19:15:17;100782.38;;;16.83;77.71
54546;BME280;40444;45.184;9.850;2023-03-22T19:17:44;100776.06;;;16.91;77.29
54546;BME280;40444;45.184;9.850;2023-03-22T19:20:11;100782.50;;;16.98;76.35
54546;BME280;40444;45.184;9.850;2023-03-22T19:22:38;100787.56;;;17.01;76.25
54546;BME280;40444;45.184;9.850;2023-03-22T19:25:06;100786.34;;;17.04;76.55
54546;BME280;40444;45.184;9.850;2023-03-22T19:27:34;100787.88;;;17.06;76.31
54546;BME280;40444;45.184;9.850;2023-03-22T19:30:01;100784.16;;;17.07;75.30
54546;BME280;40444;45.184;9.850;2023-03-22T19:32:29;100786.66;;;17.09;74.53
54546;BME280;40444;45.184;9.850;2023-03-22T19:34:56;100784.81;;;17.09;73.82
54546;BME280;40444;45.184;9.850;2023-03-22T19:37:22;100788.19;;;17.11;76.57
54546;BME280;40444;45.184;9.850;2023-03-22T19:39:49;100791.75;;;17.12;74.48
54546;BME280;40444;45.184;9.850;2023-03-22T19:42:16;100790.91;;;17.11;72.97
54546;BME280;40444;45.184;9.850;2023-03-22T19:44:43;100789.22;;;17.10;73.68
54546;BME280;40444;45.184;9.850;2023-03-22T19:47:09;100789.38;;;17.09;74.01
54546;BME280;40444;45.184;9.850;2023-03-22T19:49:36;100787.19;;;17.04;74.23
54546;BME280;40444;45.184;9.850;2023-03-22T19:52:06;100789.41;;;17.01;74.58
54546;BME280;40444;45.184;9.850;2023-03-22T19:54:34;100787.75;;;16.91;76.16
54546;BME280;40444;45.184;9.850;2023-03-22T19:57:02;100791.00;;;16.79;74.02
54546;BME280;40444;45.184;9.850;2023-03-22T19:59:29;100802.84;;;16.61;72.46
54546;BME280;40444;45.184;9.850;2023-03-22T20:01:57;100794.06;;;16.51;73.02
54546;BME280;40444;45.184;9.850;2023-03-22T20:04:23;100793.41;;;16.41;73.44
54546;BME280;40444;45.184;9.850;2023-03-22T20:06:50;100793.91;;;16.28;74.65
54546;BME280;40444;45.184;9.850;2023-03-22T20:09:17;100799.69;;;16.17;74.73
54546;BME280;40444;45.184;9.850;2023-03-22T20:11:45;100798.00;;;16.08;75.08
54546;BME280;40444;45.184;9.850;2023-03-22T20:14:12;100805.75;;;15.95;75.70
54546;BME280;40444;45.184;9.850;2023-03-22T20:16:40;100795.94;;;15.85;76.85
54546;BME280;40444;45.184;9.850;2023-03-22T20:19:07;100792.03;;;15.72;77.76
54546;BME280;40444;45.184;9.850;2023-03-22T20:21:34;100792.97;;;15.62;78.61
54546;BME280;40444;45.184;9.850;2023-03-22T20:24:02;100800.72;;;15.57;78.92
54546;BME280;40444;45.184;9.850;2023-03-22T20:26:29;100805.78;;;15.52;79.37
54546;BME280;40444;45.184;9.850;2023-03-22T20:28:57;100804.28;;;15.50;79.88
54546;BME280;40444;45.184;9.850;2023-03-22T20:31:24;100805.13;;;15.50;79.59
54546;BME280;40444;45.184;9.850;2023-03-22T20:33:52;100809.69;;;15.50;79.73
54546;BME280;40444;45.184;9.850;2023-03-22T20:36:20;100807.97;;;15.49;80.60
54546;BME280;40444;45.184;9.850;2023-03-22T20:38:47;100818.28;;;15.45;82.31
54546;BME280;40444;45.184;9.850;2023-03-22T20:41:15;100804.75;;;15.37;82.55
54546;BME280;40444;45.184;9.850;2023-03-22T20:43:44;100818.22;;;15.29;83.22
54546;BME280;40444;45.184;9.850;2023-03-22T20:46:12;100807.38;;;15.21;84.04
54546;BME280;40444;45.184;9.850;2023-03-22T20:48:40;100813.56;;;15.13;85.69
54546;BME280;40444;45.184;9.850;2023-03-22T20:51:10;100823.16;;;15.07;85.71
54546;BME280;40444;45.184;9.850;2023-03-22T20:53:37;100820.78;;;15.04;84.89
54546;BME280;40444;45.184;9.850;2023-03-22T20:56:07;100821.13;;;15.01;84.35
54546;BME280;40444;45.184;9.850;2023-03-22T20:58:35;100821.59;;;14.97;84.39
54546;BME280;40444;45.184;9.850;2023-03-22T21:01:09;100821.25;;;14.91;85.27
54546;BME280;40444;45.184;9.850;2023-03-22T21:03:38;100820.72;;;14.88;86.41
54546;BME280;40444;45.184;9.850;2023-03-22T21:06:08;100823.56;;;14.86;87.16
54546;BME280;40444;45.184;9.850;2023-03-22T21:08:36;100823.88;;;14.83;87.17
54546;BME280;40444;45.184;9.850;2023-03-22T21:11:06;100826.72;;;14.82;87.46
54546;BME280;40444;45.184;9.850;2023-03-22T21:13:37;100825.22;;;14.79;87.11
54546;BME280;40444;45.184;9.850;2023-03-22T21:16:13;100821.66;;;14.79;86.96
54546;BME280;40444;45.184;9.850;2023-03-22T21:18:40;100827.06;;;14.79;85.61
54546;BME280;40444;45.184;9.850;2023-03-22T21:21:08;100824.50;;;14.77;84.94
54546;BME280;40444;45.184;9.850;2023-03-22T21:23:35;100833.06;;;14.73;85.31
54546;BME280;40444;45.184;9.850;2023-03-22T21:26:03;100833.72;;;14.66;87.01
54546;BME280;40444;45.184;9.850;2023-03-22T21:28:31;100838.91;;;14.60;88.29
54546;BME280;40444;45.184;9.850;2023-03-22T21:31:03;100836.84;;;14.54;89.05
54546;BME280;40444;45.184;9.850;2023-03-22T21:33:30;100832.03;;;14.48;89.03
54546;BME280;40444;45.184;9.850;2023-03-22T21:35:56;100834.22;;;14.44;88.06
54546;BME280;40444;45.184;9.850;2023-03-22T21:38:23;100837.06;;;14.43;87.65
54546;BME280;40444;45.184;9.850;2023-03-22T21:40:56;100834.97;;;14.36;86.66
54546;BME280;40444;45.184;9.850;2023-03-22T21:43:24;100834.44;;;14.33;86.95
54546;BME280;40444;45.184;9.850;2023-03-22T21:45:56;100834.91;;;14.28;87.53
54546;BME280;40444;45.184;9.850;2023-03-22T21:48:25;100834.41;;;14.25;87.17
54546;BME280;40444;45.184;9.850;2023-03-22T21:50:53;100835.72;;;14.21;87.92
54546;BME280;40444;45.184;9.850;2023-03-22T21:53:22;100838.69;;;14.18;87.46
54546;BME280;40444;45.184;9.850;2023-03-22T21:55:50;100828.38;;;14.13;87.35
54546;BME280;40444;45.184;9.850;2023-03-22T21:58:19;100832.22;;;14.10;87.67
54546;BME280;40444;45.184;9.850;2023-03-22T22:00:50;100830.41;;;14.11;89.33
54546;BME280;40444;45.184;9.850;2023-03-22T22:03:17;100830.25;;;14.12;89.88
54546;BME280;40444;45.184;9.850;2023-03-22T22:05:55;100830.25;;;14.12;90.91
54546;BME280;40444;45.184;9.850;2023-03-22T22:08:22;100829.69;;;14.09;90.96
54546;BME280;40444;45.184;9.850;2023-03-22T22:10:57;100829.16;;;14.05;90.92
54546;BME280;40444;45.184;9.850;2023-03-22T22:13:25;100832.00;;;14.04;90.76
54546;BME280;40444;45.184;9.850;2023-03-22T22:15:57;100826.25;;;13.99;90.99
54546;BME280;40444;45.184;9.850;2023-03-22T22:18:25;100834.78;;;13.94;90.31
54546;BME280;40444;45.184;9.850;2023-03-22T22:20:54;100832.22;;;13.93;90.54
54546;BME280;40444;45.184;9.850;2023-03-22T22:23:24;100830.16;;;13.86;90.96
54546;BME280;40444;45.184;9.850;2023-03-22T22:25:51;100827.91;;;13.82;91.43
54546;BME280;40444;45.184;9.850;2023-03-22T22:28:18;100827.53;;;13.77;91.54
54546;BME280;40444;45.184;9.850;2023-03-22T22:30:45;100831.69;;;13.71;90.88
54546;BME280;40444;45.184;9.850;2023-03-22T22:33:12;100833.13;;;13.65;90.30
54546;BME280;40444;45.184;9.850;2023-03-22T22:35:38;100833.75;;;13.59;90.07
54546;BME280;40444;45.184;9.850;2023-03-22T22:38:06;100833.50;;;13.53;90.53
54546;BME280;40444;45.184;9.850;2023-03-22T22:40:32;100834.81;;;13.49;91.02
54546;BME280;40444;45.184;9.850;2023-03-22T22:42:59;100842.47;;;13.44;91.64
54546;BME280;40444;45.184;9.850;2023-03-22T22:45:26;100840.94;;;13.41;91.47
54546;BME280;40444;45.184;9.850;2023-03-22T22:47:53;100832.31;;;13.37;93.39
54546;BME280;40444;45.184;9.850;2023-03-22T22:50:20;100833.31;;;13.36;93.99
54546;BME280;40444;45.184;9.850;2023-03-22T22:52:47;100832.75;;;13.33;94.56
54546;BME280;40444;45.184;9.850;2023-03-22T22:55:14;100844.81;;;13.29;92.98
54546;BME280;40444;45.184;9.850;2023-03-22T22:57:41;100838.31;;;13.22;92.10
54546;BME280;40444;45.184;9.850;2023-03-22T23:00:10;100843.59;;;13.13;91.46
54546;BME280;40444;45.184;9.850;2023-03-22T23:02:38;100845.59;;;13.02;90.80
54546;BME280;40444;45.184;9.850;2023-03-22T23:05:07;100837.47;;;12.84;89.62
54546;BME280;40444;45.184;9.850;2023-03-22T23:07:35;100844.03;;;12.62;89.51
54546;BME280;40444;45.184;9.850;2023-03-22T23:10:02;100842.91;;;12.45;90.60
54546;BME280;40444;45.184;9.850;2023-03-22T23:12:29;100842.50;;;12.40;92.15
54546;BME280;40444;45.184;9.850;2023-03-22T23:14:56;100845.63;;;12.35;93.37
54546;BME280;40444;45.184;9.850;2023-03-22T23:17:23;100832.59;;;12.31;94.05
54546;BME280;40444;45.184;9.850;2023-03-22T23:19:51;100837.56;;;12.26;93.77
54546;BME280;40444;45.184;9.850;2023-03-22T23:22:23;100835.72;;;12.26;95.17
54546;BME280;40444;45.184;9.850;2023-03-22T23:24:59;100835.88;;;12.25;95.83
54546;BME280;40444;45.184;9.850;2023-03-22T23:27:30;100824.72;;;12.20;93.78
54546;BME280;40444;45.184;9.850;2023-03-22T23:29:59;100824.31;;;12.14;93.53
54546;BME280;40444;45.184;9.850;2023-03-22T23:32:27;100822.72;;;12.12;95.06
54546;BME280;40444;45.184;9.850;2023-03-22T23:34:54;100820.63;;;12.06;96.20
54546;BME280;40444;45.184;9.850;2023-03-22T23:37:32;100822.16;;;11.99;96.57
54546;BME280;40444;45.184;9.850;2023-03-22T23:40:02;100818.91;;;11.95;96.36
54546;BME280;40444;45.184;9.850;2023-03-22T23:42:37;100825.44;;;11.93;96.73
54546;BME280;40444;45.184;9.850;2023-03-22T23:45:06;100818.34;;;11.92;97.29
54546;BME280;40444;45.184;9.850;2023-03-22T23:47:33;100818.34;;;11.92;98.39
54546;BME280;40444;45.184;9.850;2023-03-22T23:50:00;100814.81;;;11.91;98.55
54546;BME280;40444;45.184;9.850;2023-03-22T23:52:28;100809.75;;;11.88;98.66
54546;BME280;40444;45.184;9.850;2023-03-22T23:54:54;100806.59;;;11.83;98.41
54546;BME280;40444;45.184;9.850;2023-03-22T23:57:21;100808.31;;;11.84;99.22
54546;BME280;40444;45.184;9.850;2023-03-22T23:59:48;100813.53;;;11.85;100.00
